createdAt,value
2023-07-02T00:02:00.813Z,100550.28
2023-07-02T00:04:30.193Z,100548.31
2023-07-02T00:07:03.327Z,100560.53
2023-07-02T00:09:32.842Z,100543.00
2023-07-02T00:11:59.808Z,100545.59
2023-07-02T00:14:36.423Z,100529.69
2023-07-02T00:17:08.211Z,100537.66
2023-07-02T00:19:35.102Z,100533.31
2023-07-02T00:22:05.529Z,100537.94
2023-07-02T00:24:33.504Z,100535.16
2023-07-02T00:27:01.331Z,100542.66
2023-07-02T00:29:36.652Z,100539.81
2023-07-02T00:32:06.902Z,100540.47
2023-07-02T00:34:33.762Z,100544.13
2023-07-02T00:37:03.301Z,100554.88
2023-07-02T00:39:31.110Z,100545.88
2023-07-02T00:42:05.243Z,100557.94
2023-07-02T00:44:37.202Z,100552.00
2023-07-02T00:47:05.184Z,100548.06
2023-07-02T00:49:39.744Z,100553.16
2023-07-02T00:52:29.497Z,100550.34
2023-07-02T00:54:58.855Z,100551.69
2023-07-02T00:57:31.761Z,100566.94
2023-07-02T01:00:03.871Z,100560.84
2023-07-02T01:02:35.536Z,100562.91
2023-07-02T01:05:03.542Z,100561.16
2023-07-02T01:07:30.509Z,100561.47
2023-07-02T01:09:57.498Z,100573.34
2023-07-02T01:12:24.415Z,100576.72
2023-07-02T01:15:01.690Z,100575.34
2023-07-02T01:17:38.834Z,100574.81
2023-07-02T01:20:08.538Z,100582.75
2023-07-02T01:22:35.493Z,100584.63
2023-07-02T01:25:03.684Z,100580.38
2023-07-02T01:27:31.274Z,100586.16
2023-07-02T01:29:58.487Z,100583.91
2023-07-02T01:32:25.275Z,100584.06
2023-07-02T01:34:54.249Z,100585.72
2023-07-02T01:37:21.171Z,100584.13
2023-07-02T01:39:48.236Z,100593.50
2023-07-02T01:42:18.403Z,100588.22
2023-07-02T01:44:46.545Z,100590.97
2023-07-02T01:47:14.258Z,100588.72
2023-07-02T01:49:41.463Z,100599.97
2023-07-02T01:52:10.677Z,100593.59
2023-07-02T01:54:37.945Z,100594.09
2023-07-02T01:57:08.275Z,100585.72
2023-07-02T01:59:35.685Z,100587.50
2023-07-02T02:02:05.757Z,100596.53
2023-07-02T02:04:41.587Z,100593.00
2023-07-02T02:07:08.762Z,100592.09
2023-07-02T02:09:35.508Z,100593.03
2023-07-02T02:12:02.109Z,100600.06
2023-07-02T02:14:28.886Z,100596.16
2023-07-02T02:17:00.904Z,100594.66
2023-07-02T02:19:28.445Z,100591.47
2023-07-02T02:21:55.139Z,100605.50
2023-07-02T02:24:21.869Z,100600.09
2023-07-02T02:26:48.438Z,100606.66
2023-07-02T02:29:15.257Z,100609.66
2023-07-02T02:31:44.685Z,100606.31
2023-07-02T02:34:13.350Z,100611.06
2023-07-02T02:36:41.098Z,100609.44
2023-07-02T02:39:07.673Z,100618.16
2023-07-02T02:41:34.604Z,100619.13
2023-07-02T02:44:01.348Z,100622.06
2023-07-02T02:46:28.377Z,100618.16
2023-07-02T02:48:55.282Z,100629.91
2023-07-02T02:51:22.393Z,100624.97
2023-07-02T02:53:50.057Z,100629.56
2023-07-02T02:56:17.248Z,100627.47
2023-07-02T02:58:45.186Z,100640.13
2023-07-02T03:01:12.213Z,100633.81
2023-07-02T03:03:40.916Z,100632.88
2023-07-02T03:06:07.789Z,100637.59
2023-07-02T03:08:34.436Z,100644.72
2023-07-02T03:11:01.142Z,100637.84
2023-07-02T03:13:29.438Z,100642.78
2023-07-02T03:15:56.148Z,100637.25
2023-07-02T03:18:23.722Z,100648.06
2023-07-02T03:20:50.621Z,100644.84
2023-07-02T03:23:17.324Z,100644.16
2023-07-02T03:25:43.943Z,100650.34
2023-07-02T03:28:10.664Z,100652.06
2023-07-02T03:30:37.899Z,100653.81
2023-07-02T03:33:04.881Z,100665.94
2023-07-02T03:35:31.532Z,100664.25
2023-07-02T03:37:58.658Z,100669.66
2023-07-02T03:40:25.306Z,100670.31
2023-07-02T03:42:52.270Z,100664.66
2023-07-02T03:45:18.997Z,100665.59
2023-07-02T03:47:46.270Z,100666.03
2023-07-02T03:50:13.185Z,100661.41
2023-07-02T03:52:40.027Z,100673.09
2023-07-02T03:55:07.313Z,100667.97
2023-07-02T03:57:34.357Z,100666.56
2023-07-02T04:00:01.278Z,100667.47
2023-07-02T04:02:28.109Z,100670.56
2023-07-02T04:04:54.883Z,100674.59
2023-07-02T04:07:21.628Z,100673.56
2023-07-02T04:09:48.319Z,100675.28
2023-07-02T04:12:14.962Z,100665.69
2023-07-02T04:14:41.603Z,100682.81
2023-07-02T04:17:08.579Z,100683.84
2023-07-02T04:19:35.194Z,100681.56
2023-07-02T04:22:01.918Z,100680.63
2023-07-02T04:24:28.748Z,100688.56
2023-07-02T04:27:25.498Z,100686.75
2023-07-02T04:29:43.209Z,100691.66
2023-07-02T04:32:10.107Z,100694.22
2023-07-02T04:34:37.613Z,100695.25
2023-07-02T04:37:05.870Z,100699.41
2023-07-02T04:39:33.171Z,100698.59
2023-07-02T04:41:59.896Z,100696.16
2023-07-02T04:44:32.444Z,100698.47
2023-07-02T04:47:02.284Z,100697.78
2023-07-02T04:49:28.957Z,100701.91
2023-07-02T04:51:55.714Z,100702.94
2023-07-02T04:54:23.898Z,100699.88
2023-07-02T04:56:51.712Z,100715.50
2023-07-02T04:59:18.440Z,100709.59
2023-07-02T05:01:46.147Z,100707.19
2023-07-02T05:04:13.102Z,100715.69
2023-07-02T05:06:40.317Z,100724.03
2023-07-02T05:09:07.221Z,100722.00
2023-07-02T05:11:36.827Z,100723.84
2023-07-02T05:14:03.600Z,100729.00
2023-07-02T05:16:30.355Z,100729.88
2023-07-02T05:18:57.114Z,100727.53
2023-07-02T05:21:24.394Z,100728.16
2023-07-02T05:23:51.162Z,100737.66
2023-07-02T05:26:17.804Z,100747.47
2023-07-02T05:28:45.472Z,100737.09
2023-07-02T05:31:12.309Z,100749.19
2023-07-02T05:33:40.034Z,100744.00
2023-07-02T05:36:06.942Z,100742.72
2023-07-02T05:38:34.056Z,100748.91
2023-07-02T05:41:00.739Z,100756.16
2023-07-02T05:43:27.678Z,100753.22
2023-07-02T05:45:54.884Z,100752.59
2023-07-02T05:48:22.092Z,100758.56
2023-07-02T05:50:48.929Z,100766.00
2023-07-02T05:53:15.843Z,100766.31
2023-07-02T05:55:43.234Z,100768.06
2023-07-02T05:58:09.996Z,100765.34
2023-07-02T06:00:37.388Z,100764.16
2023-07-02T06:03:04.710Z,100769.53
2023-07-02T06:05:32.393Z,100768.56
2023-07-02T06:08:01.953Z,100776.19
2023-07-02T06:10:28.885Z,100771.69
2023-07-02T06:12:57.881Z,100775.94
2023-07-02T06:15:24.680Z,100778.81
2023-07-02T06:17:51.364Z,100779.47
2023-07-02T06:20:18.138Z,100768.88
2023-07-02T06:22:44.796Z,100775.56
2023-07-02T06:25:14.528Z,100777.69
2023-07-02T06:27:41.257Z,100783.06
2023-07-02T06:30:08.539Z,100788.97
2023-07-02T06:32:35.169Z,100780.19
2023-07-02T06:35:01.885Z,100789.78
2023-07-02T06:37:28.524Z,100789.03
2023-07-02T06:39:55.185Z,100786.66
2023-07-02T06:42:22.108Z,100790.88
2023-07-02T06:44:48.774Z,100793.00
2023-07-02T06:47:15.394Z,100800.66
2023-07-02T06:49:42.063Z,100807.44
2023-07-02T06:52:08.728Z,100807.72
2023-07-02T06:54:35.622Z,100812.53
2023-07-02T06:57:04.908Z,100811.44
2023-07-02T06:59:31.749Z,100817.22
2023-07-02T07:01:58.373Z,100819.06
2023-07-02T07:04:25.336Z,100818.13
2023-07-02T07:06:52.779Z,100830.25
2023-07-02T07:09:19.489Z,100828.84
2023-07-02T07:11:46.157Z,100831.53
2023-07-02T07:14:14.088Z,100818.88
2023-07-02T07:16:40.867Z,100836.31
2023-07-02T07:19:08.536Z,100840.03
2023-07-02T07:21:36.182Z,100842.41
2023-07-02T07:24:04.341Z,100837.19
2023-07-02T07:26:31.411Z,100851.31
2023-07-02T07:28:59.005Z,100849.72
2023-07-02T07:31:26.149Z,100863.78
2023-07-02T07:33:52.828Z,100859.03
2023-07-02T07:36:20.311Z,100858.97
2023-07-02T07:38:47.061Z,100864.59
2023-07-02T07:41:13.596Z,100860.47
2023-07-02T07:43:40.589Z,100866.81
2023-07-02T07:46:07.413Z,100854.75
2023-07-02T07:48:34.503Z,100863.06
2023-07-02T07:51:01.160Z,100868.03
2023-07-02T07:53:27.982Z,100865.22
2023-07-02T07:55:54.675Z,100873.38
2023-07-02T07:58:21.479Z,100864.84
2023-07-02T08:00:48.437Z,100871.22
2023-07-02T08:03:16.419Z,100873.13
2023-07-02T08:05:43.211Z,100866.63
2023-07-02T08:13:00.051Z,100865.97
2023-07-02T08:37:22.284Z,100875.50
2023-07-02T09:34:30.118Z,100887.97
2023-07-02T09:52:38.629Z,100879.25
2023-07-02T09:55:57.202Z,100898.34
2023-07-02T09:59:32.086Z,100902.16
2023-07-02T10:02:11.088Z,100896.72
2023-07-02T10:04:42.833Z,100904.19
2023-07-02T10:07:09.626Z,100923.09
2023-07-02T10:09:37.598Z,100934.16
2023-07-02T10:12:26.415Z,100925.53
2023-07-02T10:14:57.002Z,100918.94
2023-07-02T10:17:32.818Z,100927.16
2023-07-02T10:20:08.179Z,100929.13
2023-07-02T10:22:45.518Z,100923.06
2023-07-02T10:25:12.517Z,100916.16
2023-07-02T10:27:43.188Z,100928.56
2023-07-02T10:30:11.673Z,100933.91
2023-07-02T10:32:39.414Z,100927.78
2023-07-02T10:35:19.724Z,100926.94
2023-07-02T10:37:47.012Z,100943.59
2023-07-02T10:40:14.301Z,100936.19
2023-07-02T10:42:51.692Z,100932.84
2023-07-02T10:45:19.612Z,100938.91
2023-07-02T10:47:46.986Z,100939.63
2023-07-02T10:50:24.342Z,100929.28
2023-07-02T10:52:51.997Z,100928.53
2023-07-02T10:55:23.842Z,100926.50
2023-07-02T10:58:04.343Z,100931.28
2023-07-02T11:00:31.553Z,100916.66
2023-07-02T11:02:59.124Z,100924.22
2023-07-02T11:05:29.880Z,100904.53
2023-07-02T11:08:09.188Z,100903.88
2023-07-02T11:10:36.282Z,100910.56
2023-07-02T11:13:14.776Z,100904.19
2023-07-02T11:15:47.222Z,100905.28
2023-07-02T11:18:17.692Z,100912.75
2023-07-02T11:20:48.329Z,100904.84
2023-07-02T11:23:23.613Z,100907.56
2023-07-02T11:26:01.559Z,100924.72
2023-07-02T11:28:31.852Z,100927.56
2023-07-02T11:30:59.845Z,100926.81
2023-07-02T11:33:36.491Z,100928.28
2023-07-02T11:36:04.139Z,100920.88
2023-07-02T11:38:31.246Z,100916.13
2023-07-02T11:40:57.933Z,100915.59
2023-07-02T11:43:24.650Z,100919.97
2023-07-02T11:45:51.528Z,100923.34
2023-07-02T11:48:18.332Z,100916.13
2023-07-02T11:50:44.972Z,100913.75
2023-07-02T11:53:11.971Z,100928.56
2023-07-02T11:55:38.941Z,100929.44
2023-07-02T11:58:05.540Z,100925.16
2023-07-02T12:00:32.216Z,100934.72
2023-07-02T12:02:59.288Z,100922.41
2023-07-02T12:05:26.601Z,100931.47
2023-07-02T12:07:53.755Z,100933.31
2023-07-02T12:10:20.630Z,100937.41
2023-07-02T12:12:47.300Z,100931.06
2023-07-02T12:15:14.030Z,100921.25
2023-07-02T12:17:40.858Z,100920.72
2023-07-02T12:20:08.054Z,100935.59
2023-07-02T12:22:34.741Z,100936.97
2023-07-02T12:25:01.429Z,100927.59
2023-07-02T12:27:28.271Z,100936.63
2023-07-02T12:29:57.599Z,100943.53
2023-07-02T12:32:24.435Z,100921.09
2023-07-02T12:34:52.064Z,100926.66
2023-07-02T12:37:20.078Z,100927.38
2023-07-02T12:39:46.968Z,100933.78
2023-07-02T12:42:13.807Z,100931.31
2023-07-02T12:44:40.391Z,100954.44
2023-07-02T12:47:07.044Z,100929.75
2023-07-02T12:49:36.719Z,100909.53
2023-07-02T12:52:05.728Z,100930.31
2023-07-02T12:54:37.192Z,100947.78
2023-07-02T12:58:15.812Z,100938.16
2023-07-02T13:01:01.034Z,100920.34
2023-07-02T13:08:31.366Z,100937.97
2023-07-02T13:10:58.239Z,100939.78
2023-07-02T13:13:26.284Z,100942.47
2023-07-02T13:15:54.498Z,100951.75
2023-07-02T13:18:21.311Z,100949.06
2023-07-02T13:20:48.388Z,100966.59
2023-07-02T13:23:15.310Z,100950.88
2023-07-02T13:25:42.269Z,100951.13
2023-07-02T13:28:08.920Z,100944.81
2023-07-02T13:30:35.615Z,100957.94
2023-07-02T13:33:02.757Z,100946.69
2023-07-02T13:35:29.437Z,100911.91
2023-07-02T13:37:56.125Z,100958.69
2023-07-02T13:40:24.852Z,100944.84
2023-07-02T13:42:51.530Z,100941.38
2023-07-02T13:45:18.392Z,100946.69
2023-07-02T13:47:46.558Z,100936.53
2023-07-02T13:50:14.949Z,100963.44
2023-07-02T13:52:41.621Z,100954.16
2023-07-02T13:55:08.663Z,100950.63
2023-07-02T13:57:35.344Z,100963.03
2023-07-02T14:00:02.237Z,100954.84
2023-07-02T14:02:33.016Z,100961.34
2023-07-02T14:05:00.962Z,100952.78
2023-07-02T14:07:28.221Z,100968.94
2023-07-02T14:09:56.937Z,100962.25
2023-07-02T14:12:23.578Z,100956.38
2023-07-02T14:14:50.276Z,100954.25
2023-07-02T14:17:17.089Z,100944.19
2023-07-02T14:19:44.965Z,100951.59
2023-07-02T14:22:12.251Z,100954.38
2023-07-02T14:24:39.204Z,100952.81
2023-07-02T14:27:06.098Z,100949.91
2023-07-02T14:29:33.064Z,100948.53
2023-07-02T14:31:59.949Z,100944.19
2023-07-02T14:34:29.846Z,100946.84
2023-07-02T14:36:59.420Z,100938.38
2023-07-02T14:39:26.472Z,100928.84
2023-07-02T14:41:53.269Z,100935.44
2023-07-02T14:44:20.478Z,100926.91
2023-07-02T14:46:47.136Z,100929.31
2023-07-02T14:49:14.027Z,100935.97
2023-07-02T14:51:41.718Z,100930.13
2023-07-02T14:54:15.257Z,100932.53
2023-07-02T14:56:41.974Z,100934.16
2023-07-02T14:59:10.104Z,100925.03
2023-07-02T15:01:39.385Z,100918.44
2023-07-02T15:04:06.354Z,100922.41
2023-07-02T15:06:37.052Z,100931.50
2023-07-02T15:09:04.236Z,100929.88
2023-07-02T15:24:26.229Z,100916.00
2023-07-02T16:26:19.068Z,100905.63
2023-07-02T16:57:38.539Z,100879.16
2023-07-02T17:14:58.724Z,100887.63
2023-07-02T17:17:29.678Z,100887.34
2023-07-02T17:19:59.348Z,100885.25
2023-07-02T17:22:28.849Z,100883.03
2023-07-02T17:24:57.823Z,100876.84
2023-07-02T17:27:28.531Z,100887.34
2023-07-02T17:29:58.519Z,100875.53
2023-07-02T17:32:33.956Z,100876.13
2023-07-02T17:35:00.856Z,100873.97
2023-07-02T17:37:30.761Z,100868.16
2023-07-02T17:39:58.156Z,100869.31
2023-07-02T17:53:21.368Z,100854.66
2023-07-02T17:55:52.377Z,100872.22
2023-07-02T17:58:19.250Z,100861.41
2023-07-02T18:00:48.706Z,100860.41
2023-07-02T18:03:18.829Z,100868.72
2023-07-02T18:05:46.060Z,100848.13
2023-07-02T18:08:12.783Z,100862.06
2023-07-02T18:10:40.967Z,100855.91
2023-07-02T18:13:08.305Z,100857.88
2023-07-02T18:15:35.272Z,100871.00
2023-07-02T18:18:02.106Z,100866.72
2023-07-02T18:20:29.990Z,100868.75
2023-07-02T18:22:56.787Z,100859.53
2023-07-02T18:25:23.404Z,100864.78
2023-07-02T18:28:06.043Z,100861.00
2023-07-02T18:30:33.275Z,100865.16
2023-07-02T18:33:00.366Z,100858.22
2023-07-02T18:35:27.046Z,100858.09
2023-07-02T18:37:53.835Z,100861.28
2023-07-02T18:40:23.153Z,100860.69
2023-07-02T18:42:50.342Z,100867.19
2023-07-02T18:45:17.856Z,100860.75
2023-07-02T18:55:41.450Z,100872.38
2023-07-02T18:58:37.670Z,100869.22
2023-07-02T19:11:54.410Z,100858.38
2023-07-02T19:20:25.267Z,100863.09
2023-07-02T19:32:41.295Z,100834.63
2023-07-02T19:41:08.359Z,100848.81
2023-07-02T20:15:06.560Z,100889.31
2023-07-02T21:04:16.345Z,100875.72
2023-07-02T21:06:43.128Z,100892.09
2023-07-02T22:08:06.703Z,100899.03
2023-07-02T22:15:09.174Z,100889.75
2023-07-02T22:17:36.614Z,100887.19
2023-07-02T22:30:05.957Z,100885.38
2023-07-02T22:33:59.759Z,100891.47
2023-07-02T23:03:41.531Z,100858.69
2023-07-02T23:28:37.317Z,100839.16
2023-07-02T23:31:53.992Z,100840.53
2023-07-02T23:58:28.347Z,100833.75
